Time,TemperatureF,DewpointF,PressureIn,WindDirection,WindDirectionDegrees,WindSpeedMPH,WindSpeedGustMPH,Humidity,HourlyPrecipIn,Conditions,Clouds,dailyrainin,SoftwareType,DateUTC
2013-10-06 00:01:00,63.1,59.9,30.11,SE,135,3.0,0.0,89,0.00,,,0.00,meteohub,2013-10-06 04:01:00,
2013-10-06 00:02:00,63.1,59.9,30.11,SE,135,3.0,0.0,89,0.00,,,0.00,meteohub,2013-10-06 04:02:00,
2013-10-06 00:03:00,63.1,59.9,30.11,SE,135,3.0,0.0,89,0.00,,,0.00,meteohub,2013-10-06 04:03:00,
2013-10-06 00:05:00,63.1,59.9,30.11,SE,135,3.0,3.0,89,0.00,,,0.00,meteohub,2013-10-06 04:05:00,
2013-10-06 00:07:00,63.1,59.9,30.11,SE,135,3.0,3.0,89,0.00,,,0.00,meteohub,2013-10-06 04:07:00,
2013-10-06 00:08:00,63.1,59.9,30.11,SE,135,3.0,3.0,89,0.00,,,0.00,meteohub,2013-10-06 04:08:00,
2013-10-06 00:13:00,63.1,59.9,30.11,SE,135,3.0,3.0,89,0.00,,,0.00,meteohub,2013-10-06 04:13:00,
2013-10-06 00:18:00,63.5,60.3,30.11,SE,135,2.0,3.0,89,0.00,,,0.00,meteohub,2013-10-06 04:18:00,
2013-10-06 00:23:00,63.5,60.3,30.11,SSE,158,4.0,4.0,89,0.00,,,0.00,meteohub,2013-10-06 04:23:00,
2013-10-06 00:28:00,63.5,60.3,30.10,SE,135,5.0,5.0,89,0.00,,,0.00,meteohub,2013-10-06 04:28:00,
2013-10-06 00:34:00,63.3,60.1,30.10,SE,135,4.0,4.0,89,0.00,,,0.00,meteohub,2013-10-06 04:34:00,
2013-10-06 00:39:00,63.5,60.3,30.10,SE,135,4.0,5.0,89,0.00,,,0.00,meteohub,2013-10-06 04:39:00,
2013-10-06 00:44:00,63.5,60.3,30.10,ENE,68,2.0,5.0,89,0.00,,,0.00,meteohub,2013-10-06 04:44:00,
2013-10-06 00:49:00,63.5,60.3,30.10,SE,135,3.0,4.0,89,0.00,,,0.00,meteohub,2013-10-06 04:49:00,
2013-10-06 00:54:00,63.5,60.3,30.10,SE,135,4.0,4.0,89,0.00,,,0.00,meteohub,2013-10-06 04:54:00,
2013-10-06 00:59:00,63.5,60.3,30.10,SE,135,2.0,4.0,89,0.00,,,0.00,meteohub,2013-10-06 04:59:00,
2013-10-06 01:04:00,63.5,60.3,30.11,ENE,68,0.0,4.0,89,0.00,,,0.00,meteohub,2013-10-06 05:04:00,
2013-10-06 01:09:00,63.5,60.3,30.11,SE,135,0.0,4.0,89,0.00,,,0.00,meteohub,2013-10-06 05:09:00,
2013-10-06 01:14:00,63.5,60.3,30.11,SE,135,0.0,3.0,89,0.00,,,0.00,meteohub,2013-10-06 05:14:00,
2013-10-06 01:19:00,63.5,60.3,30.11,SE,135,2.0,2.0,89,0.00,,,0.00,meteohub,2013-10-06 05:19:00,
2013-10-06 01:25:00,63.3,60.1,30.11,South,180,3.0,3.0,89,0.00,,,0.00,meteohub,2013-10-06 05:25:00,
2013-10-06 01:30:00,63.3,60.1,30.11,South,180,4.0,4.0,89,0.00,,,0.00,meteohub,2013-10-06 05:30:00,
2013-10-06 01:35:00,63.5,60.3,30.11,South,180,5.0,5.0,89,0.00,,,0.00,meteohub,2013-10-06 05:35:00,
2013-10-06 01:40:00,63.9,60.8,30.11,South,180,7.0,7.0,90,0.00,,,0.00,meteohub,2013-10-06 05:40:00,
2013-10-06 01:45:00,63.7,60.4,30.11,SSE,158,6.0,7.0,89,0.00,,,0.00,meteohub,2013-10-06 05:45:00,
2013-10-06 01:50:00,63.7,60.4,30.11,South,180,8.0,8.0,89,0.00,,,0.00,meteohub,2013-10-06 05:50:00,
2013-10-06 01:55:00,63.9,60.6,30.11,South,180,5.0,9.0,89,0.00,,,0.00,meteohub,2013-10-06 05:55:00,
2013-10-06 02:00:00,63.9,60.6,30.11,SSE,158,4.0,9.0,89,0.00,,,0.00,meteohub,2013-10-06 06:00:00,
2013-10-06 02:05:00,63.7,60.1,30.11,SE,135,5.0,9.0,88,0.00,,,0.00,meteohub,2013-10-06 06:05:00,
2013-10-06 02:10:00,63.7,60.1,30.11,SSE,158,6.0,8.0,88,0.00,,,0.00,meteohub,2013-10-06 06:10:00,
2013-10-06 02:15:00,63.9,60.3,30.11,SE,135,7.0,8.0,88,0.00,,,0.00,meteohub,2013-10-06 06:15:00,
2013-10-06 02:21:00,63.9,60.3,30.11,SSE,158,6.0,8.0,88,0.00,,,0.00,meteohub,2013-10-06 06:21:00,
2013-10-06 02:26:00,63.9,60.3,30.11,SSE,158,3.0,8.0,88,0.00,,,0.00,meteohub,2013-10-06 06:26:00,
2013-10-06 02:31:00,63.9,60.3,30.11,South,180,3.0,7.0,88,0.00,,,0.00,meteohub,2013-10-06 06:31:00,
2013-10-06 02:36:00,63.9,60.3,30.11,South,180,6.0,6.0,88,0.00,,,0.00,meteohub,2013-10-06 06:36:00,
2013-10-06 02:41:00,64.0,60.4,30.11,South,180,6.0,6.0,88,0.00,,,0.00,meteohub,2013-10-06 06:41:00,
2013-10-06 02:46:00,64.2,60.6,30.10,SSE,158,4.0,9.0,88,0.00,,,0.00,meteohub,2013-10-06 06:46:00,
2013-10-06 02:51:00,64.2,60.6,30.10,SSE,158,7.0,9.0,88,0.00,,,0.00,meteohub,2013-10-06 06:51:00,
2013-10-06 02:56:00,64.2,60.6,30.10,SSE,158,5.0,9.0,88,0.00,,,0.00,meteohub,2013-10-06 06:56:00,
2013-10-06 03:01:00,64.2,60.6,30.10,South,180,6.0,8.0,88,0.00,,,0.00,meteohub,2013-10-06 07:01:00,
2013-10-06 03:06:00,64.2,60.6,30.10,SSE,158,3.0,8.0,88,0.00,,,0.00,meteohub,2013-10-06 07:06:00,
2013-10-06 03:12:00,64.2,60.6,30.10,SSE,158,3.0,6.0,88,0.00,,,0.00,meteohub,2013-10-06 07:12:00,
2013-10-06 03:17:00,63.7,60.1,30.10,SSE,158,5.0,6.0,88,0.00,,,0.00,meteohub,2013-10-06 07:17:00,
2013-10-06 03:22:00,63.7,60.1,30.10,SE,135,7.0,7.0,88,0.00,,,0.00,meteohub,2013-10-06 07:22:00,
2013-10-06 03:27:00,63.9,60.3,30.10,South,180,4.0,7.0,88,0.00,,,0.00,meteohub,2013-10-06 07:27:00,
2013-10-06 03:32:00,63.9,60.3,30.10,SSE,158,3.0,7.0,88,0.00,,,0.00,meteohub,2013-10-06 07:32:00,
2013-10-06 03:37:00,63.9,60.3,30.10,SSE,158,7.0,7.0,88,0.00,,,0.00,meteohub,2013-10-06 07:37:00,
2013-10-06 03:42:00,63.9,60.3,30.10,SSE,158,5.0,7.0,88,0.00,,,0.00,meteohub,2013-10-06 07:42:00,
2013-10-06 03:47:00,64.2,60.6,30.09,South,180,6.0,7.0,88,0.00,,,0.00,meteohub,2013-10-06 07:47:00,
2013-10-06 03:52:00,64.2,60.6,30.09,South,180,5.0,7.0,88,0.00,,,0.00,meteohub,2013-10-06 07:52:00,
2013-10-06 03:57:00,64.2,60.6,30.09,SSE,158,6.0,6.0,88,0.00,,,0.00,meteohub,2013-10-06 07:57:00,
2013-10-06 04:02:00,64.2,60.6,30.09,SSE,158,7.0,7.0,88,0.00,,,0.00,meteohub,2013-10-06 08:02:00,
2013-10-06 04:07:00,64.2,60.6,30.09,SSE,158,7.0,7.0,88,0.00,,,0.00,meteohub,2013-10-06 08:07:00,
2013-10-06 04:12:00,64.0,60.4,30.09,SE,135,8.0,8.0,88,0.00,,,0.00,meteohub,2013-10-06 08:12:00,
2013-10-06 04:17:00,64.2,60.3,30.09,South,180,8.0,8.0,87,0.00,,,0.00,meteohub,2013-10-06 08:17:00,
2013-10-06 04:22:00,64.2,60.3,30.09,SSE,158,7.0,9.0,87,0.00,,,0.00,meteohub,2013-10-06 08:22:00,
2013-10-06 04:27:00,64.0,60.1,30.11,SSE,158,7.0,9.0,87,0.00,,,0.00,meteohub,2013-10-06 08:27:00,
2013-10-06 04:32:00,63.9,59.9,30.11,SE,135,6.0,9.0,87,0.00,,,0.00,meteohub,2013-10-06 08:32:00,
2013-10-06 04:37:00,64.2,60.3,30.11,SSE,158,6.0,8.0,87,0.00,,,0.00,meteohub,2013-10-06 08:37:00,
2013-10-06 04:42:00,64.2,60.3,30.11,SSE,158,7.0,7.0,87,0.00,,,0.00,meteohub,2013-10-06 08:42:00,
2013-10-06 04:47:00,64.2,60.3,30.10,SSE,158,6.0,9.0,87,0.00,,,0.00,meteohub,2013-10-06 08:47:00,
2013-10-06 04:52:00,64.2,60.3,30.10,South,180,6.0,9.0,87,0.00,,,0.00,meteohub,2013-10-06 08:52:00,
2013-10-06 04:57:00,64.2,60.3,30.10,South,180,6.0,9.0,87,0.00,,,0.00,meteohub,2013-10-06 08:57:00,
2013-10-06 05:02:00,64.2,60.3,30.10,SE,135,7.0,10.0,87,0.00,,,0.00,meteohub,2013-10-06 09:02:00,
2013-10-06 05:07:00,64.0,60.1,30.10,SE,135,5.0,10.0,87,0.00,,,0.00,meteohub,2013-10-06 09:07:00,
2013-10-06 05:12:00,63.9,59.9,30.10,SE,135,6.0,10.0,87,0.00,,,0.00,meteohub,2013-10-06 09:12:00,
2013-10-06 05:17:00,63.9,60.3,30.10,SSE,158,4.0,8.0,88,0.00,,,0.00,meteohub,2013-10-06 09:17:00,
2013-10-06 05:22:00,63.9,60.3,30.10,ESE,113,9.0,9.0,88,0.00,,,0.00,meteohub,2013-10-06 09:22:00,
2013-10-06 05:27:00,63.9,60.3,30.10,SE,135,9.0,9.0,88,0.00,,,0.00,meteohub,2013-10-06 09:27:00,
2013-10-06 05:32:00,63.9,60.3,30.10,SE,135,9.0,9.0,88,0.00,,,0.00,meteohub,2013-10-06 09:32:00,
2013-10-06 05:37:00,63.9,60.3,30.10,ESE,113,7.0,9.0,88,0.00,,,0.00,meteohub,2013-10-06 09:37:00,
2013-10-06 05:42:00,63.9,60.3,30.10,SE,135,5.0,9.0,88,0.00,,,0.00,meteohub,2013-10-06 09:42:00,
2013-10-06 05:47:00,63.7,60.1,30.12,SE,135,5.0,9.0,88,0.00,,,0.00,meteohub,2013-10-06 09:47:00,
2013-10-06 05:52:00,63.9,60.6,30.12,SSE,158,9.0,9.0,89,0.00,,,0.00,meteohub,2013-10-06 09:52:00,
2013-10-06 05:57:00,63.7,60.4,30.12,SE,135,13.0,13.0,89,0.00,,,0.00,meteohub,2013-10-06 09:57:00,
2013-10-06 06:02:00,63.5,60.3,30.12,SSE,158,10.0,13.0,89,0.03,,,0.03,meteohub,2013-10-06 10:02:00,
2013-10-06 06:07:00,63.3,60.1,30.11,ESE,113,8.0,13.0,89,0.06,,,0.06,meteohub,2013-10-06 10:07:00,
2013-10-06 06:12:00,63.3,60.1,30.11,ESE,113,8.0,13.0,89,0.06,,,0.06,meteohub,2013-10-06 10:12:00,
2013-10-06 06:17:00,63.1,59.9,30.11,SE,135,7.0,13.0,89,0.06,,,0.06,meteohub,2013-10-06 10:17:00,
2013-10-06 06:22:00,63.1,59.9,30.11,SE,135,9.0,9.0,89,0.08,,,0.08,meteohub,2013-10-06 10:22:00,
2013-10-06 06:27:00,63.1,59.9,30.12,SSE,158,6.0,9.0,89,0.08,,,0.08,meteohub,2013-10-06 10:27:00,
2013-10-06 06:32:00,63.1,59.9,30.12,SE,135,11.0,11.0,89,0.08,,,0.08,meteohub,2013-10-06 10:32:00,
2013-10-06 06:37:00,63.1,59.9,30.12,SE,135,9.0,11.0,89,0.08,,,0.08,meteohub,2013-10-06 10:37:00,
2013-10-06 06:42:00,63.1,59.9,30.12,SE,135,10.0,11.0,89,0.08,,,0.08,meteohub,2013-10-06 10:42:00,
2013-10-06 06:47:00,63.0,59.7,30.12,SE,135,5.0,11.0,89,0.08,,,0.08,meteohub,2013-10-06 10:47:00,
2013-10-06 06:52:00,63.1,59.9,30.12,SE,135,9.0,10.0,89,0.08,,,0.08,meteohub,2013-10-06 10:52:00,
2013-10-06 06:57:00,63.1,60.1,30.12,ESE,113,11.0,11.0,90,0.06,,,0.08,meteohub,2013-10-06 10:57:00,
2013-10-06 07:02:00,63.1,60.1,30.12,SE,135,9.0,12.0,90,0.03,,,0.08,meteohub,2013-10-06 11:02:00,
2013-10-06 07:07:00,63.0,59.9,30.12,SE,135,9.0,12.0,90,0.03,,,0.08,meteohub,2013-10-06 11:07:00,
2013-10-06 07:12:00,63.0,59.9,30.12,SE,135,6.0,12.0,90,0.03,,,0.08,meteohub,2013-10-06 11:12:00,
2013-10-06 07:17:00,63.0,59.9,30.12,NE,45,6.0,12.0,90,0.00,,,0.08,meteohub,2013-10-06 11:17:00,
2013-10-06 07:22:00,63.0,59.9,30.12,SE,135,8.0,9.0,90,0.00,,,0.08,meteohub,2013-10-06 11:22:00,
2013-10-06 07:27:00,63.0,59.9,30.14,ESE,113,6.0,9.0,90,0.00,,,0.08,meteohub,2013-10-06 11:27:00,
2013-10-06 07:32:00,63.1,60.1,30.14,ESE,113,6.0,9.0,90,0.00,,,0.08,meteohub,2013-10-06 11:32:00,
2013-10-06 07:37:00,63.0,59.9,30.14,SE,135,3.0,9.0,90,0.00,,,0.08,meteohub,2013-10-06 11:37:00,
2013-10-06 07:42:00,63.0,59.9,30.14,SE,135,9.0,9.0,90,0.00,,,0.08,meteohub,2013-10-06 11:42:00,
2013-10-06 07:47:00,63.0,59.9,30.14,SE,135,12.0,12.0,90,0.00,,,0.08,meteohub,2013-10-06 11:47:00,
2013-10-06 07:52:00,63.0,59.9,30.14,SE,135,11.0,12.0,90,0.00,,,0.08,meteohub,2013-10-06 11:52:00,
2013-10-06 07:57:00,63.1,60.1,30.14,SE,135,9.0,12.0,90,0.00,,,0.08,meteohub,2013-10-06 11:57:00,
2013-10-06 08:02:00,63.1,60.1,30.14,SE,135,11.0,12.0,90,0.00,,,0.08,meteohub,2013-10-06 12:02:00,
2013-10-06 08:07:00,63.0,59.9,30.14,NNE,23,15.0,15.0,90,0.03,,,0.11,meteohub,2013-10-06 12:07:00,
2013-10-06 08:12:00,63.0,59.9,30.14,WSW,248,3.0,15.0,90,0.03,,,0.11,meteohub,2013-10-06 12:12:00,
2013-10-06 08:17:00,63.1,60.1,30.14,South,180,7.0,15.0,90,0.03,,,0.11,meteohub,2013-10-06 12:17:00,
2013-10-06 08:22:00,63.1,60.1,30.14,SE,135,11.0,15.0,90,0.03,,,0.11,meteohub,2013-10-06 12:22:00,
2013-10-06 08:27:00,63.1,59.9,30.16,SE,135,9.0,11.0,89,0.03,,,0.11,meteohub,2013-10-06 12:27:00,
2013-10-06 08:32:00,63.0,59.7,30.16,SE,135,9.0,12.0,89,0.03,,,0.11,meteohub,2013-10-06 12:32:00,
2013-10-06 08:37:00,63.1,59.9,30.16,SE,135,10.0,12.0,89,0.03,,,0.11,meteohub,2013-10-06 12:37:00,
2013-10-06 08:42:00,63.1,59.9,30.16,ENE,68,7.0,10.0,89,0.03,,,0.11,meteohub,2013-10-06 12:42:00,
2013-10-06 08:47:00,63.3,60.1,30.15,SE,135,8.0,10.0,89,0.03,,,0.11,meteohub,2013-10-06 12:47:00,
2013-10-06 08:52:00,63.5,60.3,30.15,ESE,113,9.0,11.0,89,0.03,,,0.11,meteohub,2013-10-06 12:52:00,
2013-10-06 08:57:00,63.1,59.9,30.15,East,90,8.0,11.0,89,0.03,,,0.11,meteohub,2013-10-06 12:57:00,
2013-10-06 09:02:00,63.1,59.9,30.15,SE,135,11.0,11.0,89,0.00,,,0.11,meteohub,2013-10-06 13:02:00,
2013-10-06 09:07:00,63.5,60.3,30.16,SE,135,13.0,13.0,89,0.00,,,0.11,meteohub,2013-10-06 13:07:00,
2013-10-06 09:12:00,63.1,59.9,30.16,East,90,10.0,13.0,89,0.00,,,0.11,meteohub,2013-10-06 13:12:00,
2013-10-06 09:17:00,63.5,60.3,30.16,SE,135,10.0,13.0,89,0.00,,,0.11,meteohub,2013-10-06 13:17:00,
2013-10-06 09:22:00,63.1,59.9,30.16,ESE,113,11.0,13.0,89,0.00,,,0.11,meteohub,2013-10-06 13:22:00,
2013-10-06 09:27:00,63.1,59.5,30.16,ESE,113,13.0,13.0,88,0.00,,,0.11,meteohub,2013-10-06 13:27:00,
2013-10-06 09:32:00,63.1,59.5,30.16,SE,135,12.0,13.0,88,0.00,,,0.11,meteohub,2013-10-06 13:32:00,
2013-10-06 09:37:00,63.5,59.9,30.16,ESE,113,6.0,13.0,88,0.00,,,0.11,meteohub,2013-10-06 13:37:00,
2013-10-06 09:42:00,63.1,59.5,30.16,ESE,113,4.0,13.0,88,0.00,,,0.11,meteohub,2013-10-06 13:42:00,
2013-10-06 09:47:00,63.3,59.7,30.17,East,90,7.0,13.0,88,0.00,,,0.11,meteohub,2013-10-06 13:47:00,
2013-10-06 09:52:00,63.0,59.4,30.17,SSE,158,13.0,13.0,88,0.00,,,0.11,meteohub,2013-10-06 13:52:00,
2013-10-06 09:57:00,62.8,59.2,30.17,SE,135,14.0,14.0,88,0.00,,,0.11,meteohub,2013-10-06 13:57:00,
2013-10-06 10:02:00,62.8,58.8,30.17,SE,135,11.0,14.0,87,0.00,,,0.11,meteohub,2013-10-06 14:02:00,
2013-10-06 10:07:00,62.6,58.6,30.17,ESE,113,13.0,14.0,87,0.00,,,0.11,meteohub,2013-10-06 14:07:00,
2013-10-06 10:12:00,62.8,59.2,30.17,SE,135,13.0,14.0,88,0.03,,,0.14,meteohub,2013-10-06 14:12:00,
2013-10-06 10:17:00,62.4,58.5,30.17,SSE,158,11.0,13.0,87,0.03,,,0.14,meteohub,2013-10-06 14:17:00,
2013-10-06 10:22:00,62.4,58.8,30.17,SE,135,11.0,14.0,88,0.06,,,0.14,meteohub,2013-10-06 14:22:00,
2013-10-06 10:27:00,62.6,59.0,30.16,SE,135,13.0,14.0,88,0.06,,,0.17,meteohub,2013-10-06 14:27:00,
2013-10-06 10:32:00,62.8,59.2,30.16,SSE,158,9.0,13.0,88,0.06,,,0.17,meteohub,2013-10-06 14:32:00,
2013-10-06 10:37:00,63.1,59.5,30.16,ESE,113,8.0,13.0,88,0.06,,,0.17,meteohub,2013-10-06 14:37:00,
2013-10-06 10:42:00,63.0,59.4,30.16,SE,135,10.0,13.0,88,0.06,,,0.17,meteohub,2013-10-06 14:42:00,
2013-10-06 10:47:00,63.0,59.4,30.17,South,180,11.0,11.0,88,0.06,,,0.17,meteohub,2013-10-06 14:47:00,
2013-10-06 10:52:00,63.0,59.4,30.17,East,90,11.0,11.0,88,0.06,,,0.17,meteohub,2013-10-06 14:52:00,
2013-10-06 10:57:00,63.0,59.4,30.17,SSE,158,15.0,15.0,88,0.06,,,0.17,meteohub,2013-10-06 14:57:00,
2013-10-06 11:02:00,63.0,59.4,30.17,SE,135,14.0,15.0,88,0.06,,,0.17,meteohub,2013-10-06 15:02:00,
2013-10-06 11:07:00,63.1,59.5,30.17,SE,135,16.0,17.0,88,0.03,,,0.17,meteohub,2013-10-06 15:07:00,
2013-10-06 11:12:00,63.5,59.9,30.17,SE,135,14.0,17.0,88,0.03,,,0.17,meteohub,2013-10-06 15:12:00,
2013-10-06 11:17:00,63.7,60.1,30.17,NW,315,19.0,22.0,88,0.03,,,0.17,meteohub,2013-10-06 15:17:00,
2013-10-06 11:22:00,63.7,60.1,30.17,SE,135,14.0,22.0,88,0.00,,,0.17,meteohub,2013-10-06 15:22:00,
2013-10-06 11:27:00,63.9,60.3,30.16,SSE,158,16.0,22.0,88,0.00,,,0.17,meteohub,2013-10-06 15:27:00,
2013-10-06 11:32:00,63.7,60.1,30.16,SE,135,18.0,19.0,88,0.00,,,0.17,meteohub,2013-10-06 15:32:00,
2013-10-06 11:37:00,63.7,60.1,30.16,SE,135,14.0,18.0,88,0.00,,,0.17,meteohub,2013-10-06 15:37:00,
2013-10-06 11:42:00,63.7,60.1,30.16,SE,135,21.0,21.0,88,0.00,,,0.17,meteohub,2013-10-06 15:42:00,
2013-10-06 11:47:00,63.7,59.7,30.17,SSE,158,12.0,21.0,87,0.00,,,0.17,meteohub,2013-10-06 15:47:00,
2013-10-06 11:52:00,63.5,59.5,30.17,SSE,158,16.0,21.0,87,0.00,,,0.17,meteohub,2013-10-06 15:52:00,
2013-10-06 11:57:00,63.5,59.5,30.17,SE,135,13.0,21.0,87,0.00,,,0.17,meteohub,2013-10-06 15:57:00,
2013-10-06 12:02:00,63.1,59.5,30.17,SSE,158,12.0,18.0,88,0.00,,,0.17,meteohub,2013-10-06 16:02:00,
2013-10-06 12:07:00,63.1,59.5,30.17,SE,135,13.0,18.0,88,0.03,,,0.19,meteohub,2013-10-06 16:07:00,
2013-10-06 12:12:00,63.1,59.5,30.17,SE,135,13.0,15.0,88,0.06,,,0.22,meteohub,2013-10-06 16:12:00,
2013-10-06 12:17:00,63.3,59.7,30.17,South,180,8.0,13.0,88,0.06,,,0.22,meteohub,2013-10-06 16:17:00,
2013-10-06 12:22:00,63.7,60.1,30.17,SE,135,15.0,15.0,88,0.06,,,0.22,meteohub,2013-10-06 16:22:00,
2013-10-06 12:27:00,63.7,60.1,30.16,SE,135,15.0,15.0,88,0.06,,,0.22,meteohub,2013-10-06 16:27:00,
2013-10-06 12:32:00,64.0,60.4,30.16,SE,135,13.0,15.0,88,0.06,,,0.22,meteohub,2013-10-06 16:32:00,
2013-10-06 12:37:00,64.6,61.0,30.16,SSE,158,12.0,18.0,88,0.06,,,0.22,meteohub,2013-10-06 16:37:00,
2013-10-06 12:43:00,65.1,61.5,30.16,SE,135,14.0,18.0,88,0.06,,,0.22,meteohub,2013-10-06 16:43:00,
2013-10-06 12:48:00,64.9,61.3,30.16,SE,135,13.0,18.0,88,0.06,,,0.22,meteohub,2013-10-06 16:48:00,
2013-10-06 12:53:00,64.6,60.6,30.16,SE,135,11.0,15.0,87,0.06,,,0.22,meteohub,2013-10-06 16:53:00,
2013-10-06 12:58:00,64.6,60.6,30.16,SSE,158,14.0,16.0,87,0.06,,,0.22,meteohub,2013-10-06 16:58:00,
2013-10-06 13:04:00,64.6,60.6,30.15,SE,135,14.0,16.0,87,0.06,,,0.22,meteohub,2013-10-06 17:04:00,
2013-10-06 13:09:00,64.6,60.6,30.15,SE,135,13.0,16.0,87,0.00,,,0.22,meteohub,2013-10-06 17:09:00,
2013-10-06 13:14:00,64.4,60.4,30.15,SE,135,17.0,17.0,87,0.00,,,0.22,meteohub,2013-10-06 17:14:00,
2013-10-06 13:20:00,65.1,61.2,30.15,ESE,113,15.0,15.0,87,0.00,,,0.22,meteohub,2013-10-06 17:20:00,
2013-10-06 13:25:00,66.0,62.1,30.14,SE,135,13.0,17.0,87,0.00,,,0.22,meteohub,2013-10-06 17:25:00,
2013-10-06 13:30:00,66.6,62.2,30.14,South,180,11.0,15.0,86,0.00,,,0.22,meteohub,2013-10-06 17:30:00,
2013-10-06 13:35:00,67.1,62.8,30.14,SSE,158,17.0,17.0,86,0.00,,,0.22,meteohub,2013-10-06 17:35:00,
2013-10-06 13:40:00,66.9,62.6,30.14,SSE,158,15.0,17.0,86,0.00,,,0.22,meteohub,2013-10-06 17:40:00,
2013-10-06 13:46:00,67.1,62.4,30.14,South,180,10.0,17.0,85,0.00,,,0.22,meteohub,2013-10-06 17:46:00,
2013-10-06 13:51:00,67.1,62.4,30.14,SE,135,16.0,17.0,85,0.00,,,0.22,meteohub,2013-10-06 17:51:00,
2013-10-06 13:56:00,66.7,61.7,30.14,South,180,17.0,17.0,84,0.00,,,0.22,meteohub,2013-10-06 17:56:00,
2013-10-06 14:01:00,66.6,61.5,30.14,SSE,158,17.0,18.0,84,0.00,,,0.22,meteohub,2013-10-06 18:01:00,
2013-10-06 14:07:00,66.4,61.3,30.13,SE,135,16.0,19.0,84,0.00,,,0.22,meteohub,2013-10-06 18:07:00,
2013-10-06 14:12:00,66.0,61.0,30.13,SSE,158,11.0,19.0,84,0.00,,,0.22,meteohub,2013-10-06 18:12:00,
2013-10-06 14:17:00,66.2,61.2,30.13,SE,135,15.0,19.0,84,0.00,,,0.22,meteohub,2013-10-06 18:17:00,
2013-10-06 14:22:00,66.4,61.3,30.13,SE,135,16.0,16.0,84,0.00,,,0.22,meteohub,2013-10-06 18:22:00,
2013-10-06 14:27:00,66.4,61.3,30.13,SE,135,14.0,16.0,84,0.00,,,0.22,meteohub,2013-10-06 18:27:00,
2013-10-06 14:32:00,66.0,61.0,30.13,South,180,12.0,16.0,84,0.00,,,0.22,meteohub,2013-10-06 18:32:00,
2013-10-06 14:37:00,65.8,60.8,30.13,South,180,11.0,20.0,84,0.00,,,0.22,meteohub,2013-10-06 18:37:00,
2013-10-06 14:42:00,65.7,60.6,30.13,SE,135,13.0,20.0,84,0.00,,,0.22,meteohub,2013-10-06 18:42:00,
2013-10-06 14:47:00,65.5,60.4,30.13,SE,135,14.0,16.0,84,0.00,,,0.22,meteohub,2013-10-06 18:47:00,
2013-10-06 14:52:00,65.5,60.4,30.13,SE,135,15.0,17.0,84,0.00,,,0.22,meteohub,2013-10-06 18:52:00,
2013-10-06 14:57:00,65.7,60.6,30.13,SSE,158,12.0,17.0,84,0.00,,,0.22,meteohub,2013-10-06 18:57:00,
2013-10-06 15:02:00,65.5,60.4,30.13,South,180,9.0,17.0,84,0.00,,,0.22,meteohub,2013-10-06 19:02:00,
2013-10-06 15:07:00,65.3,60.3,30.13,SSE,158,13.0,17.0,84,0.00,,,0.22,meteohub,2013-10-06 19:07:00,
2013-10-06 15:12:00,65.1,60.1,30.13,SE,135,14.0,20.0,84,0.00,,,0.22,meteohub,2013-10-06 19:12:00,
2013-10-06 15:17:00,65.3,60.6,30.13,SE,135,15.0,20.0,85,0.00,,,0.22,meteohub,2013-10-06 19:17:00,
2013-10-06 15:22:00,64.9,60.3,30.13,SSE,158,15.0,19.0,85,0.00,,,0.22,meteohub,2013-10-06 19:22:00,
2013-10-06 15:27:00,64.9,60.3,30.13,SE,135,12.0,16.0,85,0.00,,,0.22,meteohub,2013-10-06 19:27:00,
2013-10-06 15:32:00,64.8,60.1,30.13,SSE,158,12.0,17.0,85,0.00,,,0.22,meteohub,2013-10-06 19:32:00,
2013-10-06 15:37:00,64.6,59.9,30.13,SSE,158,22.0,22.0,85,0.00,,,0.22,meteohub,2013-10-06 19:37:00,
2013-10-06 15:42:00,64.4,59.7,30.13,SE,135,10.0,23.0,85,0.00,,,0.22,meteohub,2013-10-06 19:42:00,
2013-10-06 15:47:00,64.4,60.1,30.13,SSE,158,16.0,23.0,86,0.00,,,0.22,meteohub,2013-10-06 19:47:00,
2013-10-06 15:52:00,64.4,60.1,30.13,SE,135,11.0,23.0,86,0.00,,,0.22,meteohub,2013-10-06 19:52:00,
2013-10-06 15:57:00,64.2,59.9,30.13,SSE,158,13.0,16.0,86,0.00,,,0.22,meteohub,2013-10-06 19:57:00,
2013-10-06 16:02:00,63.9,59.5,30.13,SE,135,15.0,19.0,86,0.00,,,0.22,meteohub,2013-10-06 20:02:00,
2013-10-06 16:07:00,63.9,59.5,30.13,SE,135,12.0,19.0,86,0.00,,,0.22,meteohub,2013-10-06 20:07:00,
2013-10-06 16:12:00,63.7,59.4,30.13,SSE,158,14.0,15.0,86,0.00,,,0.22,meteohub,2013-10-06 20:12:00,
2013-10-06 16:17:00,63.7,59.4,30.13,SSE,158,11.0,15.0,86,0.00,,,0.22,meteohub,2013-10-06 20:17:00,
2013-10-06 16:22:00,63.7,59.7,30.13,SSE,158,17.0,17.0,87,0.00,,,0.22,meteohub,2013-10-06 20:22:00,
2013-10-06 16:27:00,63.5,59.5,30.13,SSE,158,12.0,18.0,87,0.00,,,0.22,meteohub,2013-10-06 20:27:00,
2013-10-06 16:32:00,63.5,59.5,30.13,SSE,158,13.0,18.0,87,0.00,,,0.22,meteohub,2013-10-06 20:32:00,
2013-10-06 16:37:00,63.5,59.9,30.13,SSE,158,9.0,17.0,88,0.00,,,0.22,meteohub,2013-10-06 20:37:00,
2013-10-06 16:42:00,63.5,59.9,30.13,SSE,158,13.0,16.0,88,0.00,,,0.22,meteohub,2013-10-06 20:42:00,
2013-10-06 16:47:00,63.5,59.9,30.13,SE,135,14.0,16.0,88,0.00,,,0.22,meteohub,2013-10-06 20:47:00,
2013-10-06 16:52:00,63.5,59.9,30.13,SSE,158,13.0,17.0,88,0.00,,,0.22,meteohub,2013-10-06 20:52:00,
2013-10-06 16:57:00,63.5,59.9,30.13,SSE,158,18.0,18.0,88,0.00,,,0.22,meteohub,2013-10-06 20:57:00,
2013-10-06 17:02:00,63.5,60.3,30.13,SSE,158,15.0,18.0,89,0.00,,,0.22,meteohub,2013-10-06 21:02:00,
2013-10-06 17:07:00,63.3,60.1,30.12,SSE,158,16.0,18.0,89,0.00,,,0.22,meteohub,2013-10-06 21:07:00,
2013-10-06 17:12:00,63.5,60.3,30.12,SE,135,20.0,20.0,89,0.00,,,0.22,meteohub,2013-10-06 21:12:00,
2013-10-06 17:17:00,63.1,59.9,30.12,SE,135,15.0,20.0,89,0.00,,,0.22,meteohub,2013-10-06 21:17:00,
2013-10-06 17:22:00,63.1,59.9,30.12,SSE,158,14.0,22.0,89,0.00,,,0.22,meteohub,2013-10-06 21:22:00,
2013-10-06 17:27:00,63.1,59.9,30.13,SE,135,21.0,22.0,89,0.00,,,0.22,meteohub,2013-10-06 21:27:00,
2013-10-06 17:32:00,63.0,59.7,30.13,SSE,158,14.0,21.0,89,0.00,,,0.22,meteohub,2013-10-06 21:32:00,
2013-10-06 17:37:00,63.0,59.7,30.13,SE,135,18.0,21.0,89,0.00,,,0.22,meteohub,2013-10-06 21:37:00,
2013-10-06 17:42:00,62.8,59.5,30.13,South,180,13.0,21.0,89,0.00,,,0.22,meteohub,2013-10-06 21:42:00,
2013-10-06 17:47:00,62.6,59.4,30.13,SE,135,19.0,19.0,89,0.00,,,0.22,meteohub,2013-10-06 21:47:00,
2013-10-06 17:52:00,62.8,59.5,30.13,SSE,158,15.0,19.0,89,0.00,,,0.22,meteohub,2013-10-06 21:52:00,
2013-10-06 17:57:00,62.8,59.5,30.13,SE,135,19.0,19.0,89,0.00,,,0.22,meteohub,2013-10-06 21:57:00,
2013-10-06 18:02:00,62.4,59.2,30.13,SSE,158,20.0,20.0,89,0.00,,,0.22,meteohub,2013-10-06 22:02:00,
2013-10-06 18:07:00,62.2,59.0,30.13,South,180,14.0,20.0,89,0.00,,,0.22,meteohub,2013-10-06 22:07:00,
2013-10-06 18:12:00,62.2,59.0,30.13,SSE,158,22.0,22.0,89,0.00,,,0.22,meteohub,2013-10-06 22:12:00,
2013-10-06 18:17:00,62.2,59.0,30.13,ESE,113,15.0,20.0,89,0.00,,,0.22,meteohub,2013-10-06 22:17:00,
2013-10-06 18:22:00,62.1,58.8,30.13,SSE,158,18.0,22.0,89,0.00,,,0.22,meteohub,2013-10-06 22:22:00,
2013-10-06 18:27:00,61.9,58.6,30.13,SE,135,13.0,22.0,89,0.00,,,0.22,meteohub,2013-10-06 22:27:00,
2013-10-06 18:32:00,61.9,58.6,30.13,SE,135,14.0,18.0,89,0.00,,,0.22,meteohub,2013-10-06 22:32:00,
2013-10-06 18:37:00,62.1,58.8,30.13,SSE,158,9.0,18.0,89,0.00,,,0.22,meteohub,2013-10-06 22:37:00,
2013-10-06 18:42:00,61.9,59.0,30.13,SE,135,14.0,16.0,90,0.00,,,0.22,meteohub,2013-10-06 22:42:00,
2013-10-06 18:47:00,61.9,59.0,30.14,SE,135,17.0,17.0,90,0.00,,,0.22,meteohub,2013-10-06 22:47:00,
2013-10-06 18:53:00,61.9,59.0,30.14,SE,135,19.0,19.0,90,0.00,,,0.22,meteohub,2013-10-06 22:53:00,
2013-10-06 18:58:00,61.9,59.0,30.14,SE,135,21.0,21.0,90,0.00,,,0.22,meteohub,2013-10-06 22:58:00,
2013-10-06 19:03:00,61.7,58.8,30.13,SSE,158,20.0,21.0,90,0.00,,,0.22,meteohub,2013-10-06 23:03:00,
2013-10-06 19:08:00,61.7,58.8,30.13,SE,135,11.0,21.0,90,0.00,,,0.22,meteohub,2013-10-06 23:08:00,
2013-10-06 19:13:00,61.7,58.8,30.13,SE,135,16.0,21.0,90,0.00,,,0.22,meteohub,2013-10-06 23:13:00,
2013-10-06 19:18:00,61.7,58.8,30.13,SSE,158,17.0,21.0,90,0.00,,,0.22,meteohub,2013-10-06 23:18:00,
2013-10-06 19:23:00,61.7,58.8,30.13,SE,135,16.0,21.0,90,0.00,,,0.22,meteohub,2013-10-06 23:23:00,
2013-10-06 19:28:00,61.7,58.8,30.13,SE,135,18.0,21.0,90,0.00,,,0.22,meteohub,2013-10-06 23:28:00,
2013-10-06 19:33:00,61.7,58.8,30.13,SSE,158,15.0,18.0,90,0.00,,,0.22,meteohub,2013-10-06 23:33:00,
2013-10-06 19:38:00,61.7,58.8,30.13,SSE,158,13.0,18.0,90,0.00,,,0.22,meteohub,2013-10-06 23:38:00,
2013-10-06 19:44:00,61.7,58.8,30.13,SSE,158,14.0,18.0,90,0.00,,,0.22,meteohub,2013-10-06 23:44:00,
2013-10-06 19:49:00,61.9,59.0,30.13,SSE,158,17.0,17.0,90,0.00,,,0.22,meteohub,2013-10-06 23:49:00,
2013-10-06 19:54:00,62.1,59.2,30.13,SE,135,15.0,15.0,90,0.00,,,0.22,meteohub,2013-10-06 23:54:00,
2013-10-06 19:59:00,61.9,59.0,30.13,SSE,158,17.0,17.0,90,0.00,,,0.22,meteohub,2013-10-06 23:59:00,
2013-10-06 20:04:00,62.1,59.2,30.13,SE,135,16.0,17.0,90,0.00,,,0.22,meteohub,2013-10-07 00:04:00,
2013-10-06 20:09:00,62.1,59.2,30.13,SE,135,14.0,21.0,90,0.00,,,0.00,meteohub,2013-10-07 00:09:00,
2013-10-06 20:15:00,61.9,59.0,30.13,SSE,158,15.0,21.0,90,0.00,,,0.00,meteohub,2013-10-07 00:15:00,
2013-10-06 20:20:00,62.1,59.2,30.13,SE,135,9.0,18.0,90,0.00,,,0.00,meteohub,2013-10-07 00:20:00,
2013-10-06 20:25:00,62.2,59.2,30.12,SE,135,17.0,17.0,90,0.00,,,0.00,meteohub,2013-10-07 00:25:00,
2013-10-06 20:30:00,62.2,59.2,30.12,SSE,158,12.0,17.0,90,0.00,,,0.00,meteohub,2013-10-07 00:30:00,
2013-10-06 20:35:00,62.2,59.2,30.12,SSE,158,13.0,17.0,90,0.00,,,0.00,meteohub,2013-10-07 00:35:00,
2013-10-06 20:40:00,62.2,59.2,30.12,SSE,158,17.0,17.0,90,0.00,,,0.00,meteohub,2013-10-07 00:40:00,
2013-10-06 20:45:00,62.2,59.2,30.12,SE,135,14.0,17.0,90,0.00,,,0.00,meteohub,2013-10-07 00:45:00,
2013-10-06 20:50:00,62.2,59.2,30.12,SE,135,13.0,17.0,90,0.00,,,0.00,meteohub,2013-10-07 00:50:00,
2013-10-06 20:55:00,62.4,59.4,30.12,SE,135,12.0,17.0,90,0.00,,,0.00,meteohub,2013-10-07 00:55:00,
2013-10-06 21:01:00,62.4,59.4,30.12,SE,135,14.0,14.0,90,0.00,,,0.00,meteohub,2013-10-07 01:01:00,
2013-10-06 21:06:00,62.4,59.4,30.13,SE,135,12.0,14.0,90,0.00,,,0.00,meteohub,2013-10-07 01:06:00,
2013-10-06 21:11:00,62.4,59.4,30.13,SSE,158,12.0,15.0,90,0.00,,,0.00,meteohub,2013-10-07 01:11:00,
2013-10-06 21:16:00,62.8,59.7,30.13,SSE,158,16.0,16.0,90,0.00,,,0.00,meteohub,2013-10-07 01:16:00,
2013-10-06 21:21:00,62.6,59.5,30.13,SSE,158,17.0,17.0,90,0.00,,,0.00,meteohub,2013-10-07 01:21:00,
2013-10-06 21:26:00,62.6,59.5,30.12,SSE,158,13.0,17.0,90,0.00,,,0.00,meteohub,2013-10-07 01:26:00,
2013-10-06 21:31:00,62.8,59.7,30.12,SSE,158,14.0,17.0,90,0.00,,,0.00,meteohub,2013-10-07 01:31:00,
2013-10-06 21:36:00,62.8,59.7,30.12,SSE,158,11.0,17.0,90,0.00,,,0.00,meteohub,2013-10-07 01:36:00,
2013-10-06 21:41:00,62.8,59.7,30.12,SE,135,11.0,14.0,90,0.00,,,0.00,meteohub,2013-10-07 01:41:00,
2013-10-06 21:47:00,63.0,59.9,30.12,SE,135,14.0,15.0,90,0.00,,,0.00,meteohub,2013-10-07 01:47:00,
2013-10-06 21:52:00,63.0,59.9,30.12,SE,135,14.0,15.0,90,0.00,,,0.00,meteohub,2013-10-07 01:52:00,
2013-10-06 21:57:00,63.0,59.9,30.12,ESE,113,14.0,15.0,90,0.00,,,0.00,meteohub,2013-10-07 01:57:00,
2013-10-06 22:02:00,63.1,60.1,30.12,SE,135,15.0,18.0,90,0.00,,,0.00,meteohub,2013-10-07 02:02:00,
2013-10-06 22:07:00,63.1,60.1,30.12,SW,225,16.0,18.0,90,0.00,,,0.00,meteohub,2013-10-07 02:07:00,
2013-10-06 22:12:00,63.0,59.9,30.12,SSE,158,10.0,18.0,90,0.00,,,0.00,meteohub,2013-10-07 02:12:00,
2013-10-06 22:17:00,63.0,59.9,30.12,SE,135,12.0,16.0,90,0.00,,,0.00,meteohub,2013-10-07 02:17:00,
2013-10-06 22:22:00,63.0,59.9,30.12,South,180,12.0,16.0,90,0.00,,,0.00,meteohub,2013-10-07 02:22:00,
2013-10-06 22:27:00,63.0,59.9,30.11,SE,135,9.0,15.0,90,0.00,,,0.00,meteohub,2013-10-07 02:27:00,
2013-10-06 22:32:00,63.1,60.1,30.11,South,180,9.0,15.0,90,0.00,,,0.00,meteohub,2013-10-07 02:32:00,
2013-10-06 22:37:00,63.1,60.1,30.11,SE,135,13.0,15.0,90,0.00,,,0.00,meteohub,2013-10-07 02:37:00,
2013-10-06 22:42:00,63.3,60.3,30.11,SE,135,9.0,13.0,90,0.00,,,0.00,meteohub,2013-10-07 02:42:00,
2013-10-06 22:47:00,63.3,60.3,30.11,SE,135,13.0,15.0,90,0.00,,,0.00,meteohub,2013-10-07 02:47:00,
2013-10-06 22:52:00,63.3,60.3,30.11,SE,135,10.0,15.0,90,0.00,,,0.00,meteohub,2013-10-07 02:52:00,
2013-10-06 22:57:00,63.5,60.4,30.11,SE,135,13.0,13.0,90,0.00,,,0.00,meteohub,2013-10-07 02:57:00,
2013-10-06 23:02:00,63.3,60.3,30.11,SSE,158,11.0,13.0,90,0.00,,,0.00,meteohub,2013-10-07 03:02:00,
2013-10-06 23:07:00,63.5,60.4,30.10,SE,135,11.0,13.0,90,0.00,,,0.00,meteohub,2013-10-07 03:07:00,
2013-10-06 23:12:00,63.5,60.4,30.10,ESE,113,15.0,15.0,90,0.00,,,0.00,meteohub,2013-10-07 03:12:00,
2013-10-06 23:17:00,63.7,60.6,30.10,SSE,158,8.0,15.0,90,0.00,,,0.00,meteohub,2013-10-07 03:17:00,
2013-10-06 23:22:00,63.7,60.6,30.10,SSE,158,7.0,15.0,90,0.00,,,0.00,meteohub,2013-10-07 03:22:00,
2013-10-06 23:27:00,63.9,60.8,30.10,SE,135,12.0,15.0,90,0.00,,,0.00,meteohub,2013-10-07 03:27:00,
2013-10-06 23:32:00,63.7,60.6,30.10,SE,135,12.0,13.0,90,0.00,,,0.00,meteohub,2013-10-07 03:32:00,
2013-10-06 23:37:00,63.9,60.8,30.10,South,180,7.0,12.0,90,0.00,,,0.00,meteohub,2013-10-07 03:37:00,
2013-10-06 23:42:00,63.7,60.6,30.10,SE,135,9.0,12.0,90,0.00,,,0.00,meteohub,2013-10-07 03:42:00,
2013-10-06 23:47:00,63.7,60.6,30.09,SSE,158,8.0,12.0,90,0.00,,,0.00,meteohub,2013-10-07 03:47:00,
2013-10-06 23:52:00,63.9,60.8,30.09,SE,135,10.0,11.0,90,0.00,,,0.00,meteohub,2013-10-07 03:52:00,
2013-10-06 23:57:00,63.9,60.8,30.09,SSE,158,7.0,11.0,90,0.00,,,0.00,meteohub,2013-10-07 03:57:00,